Time;durP1;ratioP1;P1;durP2;ratioP2;P2;SDS_P1;SDS_P2;PMS_P1;PMS_P2;Temp;Humidity;BMP_temperature;BMP_pressure;BME280_temperature;BME280_humidity;BME280_pressure;Samples;Min_cycle;Max_cycle;Signal;HPM_P1;HPM_P2
2021/06/17 00:00:24;;;;;;;3.42;3.00;;;22.80;1.00;;;;;;6148524;23;20115;-64
2021/06/17 00:03:12;;;;;;;5.78;3.70;;;22.90;1.00;;;;;;6148918;23;20029;-65
2021/06/17 00:06:02;;;;;;;4.22;3.63;;;22.80;1.00;;;;;;6146982;23;20026;-65
2021/06/17 00:08:50;;;;;;;9.98;4.07;;;22.70;1.00;;;;;;6144232;23;20032;-64
2021/06/17 00:11:39;;;;;;;4.53;3.40;;;22.80;1.00;;;;;;6149261;23;20090;-65
2021/06/17 00:14:28;;;;;;;4.90;3.55;;;22.70;1.00;;;;;;6127718;23;20328;-64
2021/06/17 00:17:18;;;;;;;3.92;3.35;;;22.80;1.00;;;;;;6145768;23;20025;-65
2021/06/17 00:20:08;;;;;;;5.50;3.17;;;22.90;1.00;;;;;;6148444;23;20036;-64
2021/06/17 00:26:08;;;;;;;4.10;3.40;;;22.60;1.00;;;;;;6167791;23;20238;-64
2021/06/17 00:28:56;;;;;;;5.50;3.85;;;22.60;1.00;;;;;;6173856;23;20322;-65
2021/06/17 00:31:44;;;;;;;4.60;3.80;;;22.40;1.00;;;;;;6175987;23;20092;-65
2021/06/17 00:34:33;;;;;;;10.43;3.75;;;22.40;1.00;;;;;;6176368;23;20048;-63
2021/06/17 00:37:21;;;;;;;4.88;3.70;;;22.30;1.00;;;;;;6175279;23;20512;-64
2021/06/17 00:40:13;;;;;;;4.07;3.67;;;22.30;1.00;;;;;;6176694;23;20096;-65
2021/06/17 00:43:04;;;;;;;4.53;3.60;;;22.20;1.00;;;;;;6176870;23;20192;-65
2021/06/17 00:45:53;;;;;;;5.55;3.35;;;22.30;1.00;;;;;;6176005;23;20516;-65
2021/06/17 00:48:42;;;;;;;5.35;3.63;;;22.30;1.00;;;;;;6171774;23;20025;-65
2021/06/17 00:51:30;;;;;;;6.22;3.47;;;22.20;1.00;;;;;;6176508;23;20028;-65
2021/06/17 00:54:32;;;;;;;5.65;3.40;;;22.20;1.00;;;;;;6165395;23;20068;-64
2021/06/17 00:57:21;;;;;;;7.97;3.90;;;22.00;1.00;;;;;;6172337;23;20067;-63
2021/06/17 01:00:14;;;;;;;5.38;3.65;;;22.10;1.00;;;;;;6177424;23;20099;-63
2021/06/17 01:03:05;;;;;;;6.50;3.67;;;22.10;1.00;;;;;;6177567;23;20353;-65
2021/06/17 01:05:53;;;;;;;4.03;3.47;;;22.00;1.00;;;;;;6174109;23;20096;-64
2021/06/17 01:08:51;;;;;;;9.38;3.55;;;22.00;1.00;;;;;;6172826;23;20029;-64
2021/06/17 01:11:49;;;;;;;5.55;3.35;;;21.80;1.00;;;;;;6175299;23;20021;-63
2021/06/17 01:14:43;;;;;;;7.10;4.47;;;21.70;1.00;;;;;;6173796;23;20104;-64
2021/06/17 01:17:38;;;;;;;4.43;3.30;;;21.60;1.00;;;;;;6171941;23;20035;-64
2021/06/17 01:20:31;;;;;;;5.88;3.75;;;21.50;1.00;;;;;;6176743;23;20027;-63
2021/06/17 01:23:49;;;;;;;5.15;3.70;;;21.40;1.00;;;;;;6176364;23;20025;-64
2021/06/17 01:27:01;;;;;;;8.95;4.03;;;21.50;1.00;;;;;;6176635;23;20047;-65
2021/06/17 01:29:55;;;;;;;5.57;3.85;;;21.40;1.00;;;;;;6175203;23;20051;-64
2021/06/17 01:32:48;;;;;;;3.95;3.30;;;21.40;1.00;;;;;;6176581;23;20025;-63
2021/06/17 01:35:42;;;;;;;4.25;3.35;;;21.40;1.00;;;;;;6174413;23;20103;-63
2021/06/17 01:38:33;;;;;;;5.97;3.42;;;21.20;1.00;;;;;;6172841;23;20143;-64
2021/06/17 01:41:27;;;;;;;4.70;3.83;;;21.20;1.00;;;;;;6178560;23;20481;-63
2021/06/17 01:44:20;;;;;;;4.88;3.83;;;21.20;1.00;;;;;;6176948;23;20545;-64
2021/06/17 01:47:12;;;;;;;4.78;3.83;;;21.10;1.00;;;;;;6177057;23;20051;-63
2021/06/17 01:50:01;;;;;;;6.53;3.80;;;21.00;1.00;;;;;;6179042;23;20047;-65
2021/06/17 01:52:51;;;;;;;4.30;3.90;;;21.10;1.00;;;;;;6178896;23;20111;-63
2021/06/17 01:55:41;;;;;;;5.88;3.70;;;21.20;1.00;;;;;;6176859;23;20021;-64
2021/06/17 01:58:30;;;;;;;5.75;3.67;;;20.90;1.00;;;;;;6174880;23;20025;-64
2021/06/17 02:01:21;;;;;;;6.00;3.90;;;21.00;1.00;;;;;;6179909;23;20028;-64
2021/06/17 02:04:12;;;;;;;6.30;3.85;;;20.90;1.00;;;;;;6177271;23;20024;-63
2021/06/17 02:07:01;;;;;;;5.30;3.63;;;21.00;1.00;;;;;;6176755;23;20060;-64
2021/06/17 02:09:52;;;;;;;4.00;3.60;;;21.00;1.00;;;;;;6175614;23;20025;-64
2021/06/17 02:12:42;;;;;;;4.05;3.55;;;21.00;1.00;;;;;;6179184;23;20088;-64
2021/06/17 02:15:31;;;;;;;6.82;3.60;;;20.90;1.00;;;;;;6176315;23;20031;-65
2021/06/17 02:18:25;;;;;;;6.30;3.97;;;20.80;1.00;;;;;;6176412;23;20025;-63
2021/06/17 02:21:16;;;;;;;6.35;4.10;;;20.80;1.00;;;;;;6178581;23;20449;-64
2021/06/17 02:24:09;;;;;;;3.55;3.25;;;20.80;1.00;;;;;;6176785;23;20025;-65
2021/06/17 02:27:02;;;;;;;4.90;3.60;;;20.80;1.00;;;;;;6176736;23;20028;-63
2021/06/17 02:29:51;;;;;;;4.82;3.78;;;20.80;1.00;;;;;;6176589;23;20033;-64
2021/06/17 02:32:43;;;;;;;4.10;3.70;;;20.60;1.00;;;;;;6179178;23;20087;-63
2021/06/17 02:35:32;;;;;;;5.53;3.20;;;20.70;1.00;;;;;;6176306;23;20025;-64
2021/06/17 02:38:27;;;;;;;4.55;3.67;;;20.60;1.00;;;;;;6174361;23;20118;-65
2021/06/17 02:41:18;;;;;;;;;;;20.60;1.00;;;;;;6179660;23;20549;-65
2021/06/17 02:44:08;;;;;;;8.55;5.18;;;20.50;1.00;;;;;;6156207;23;19950;-64
2021/06/17 02:46:57;;;;;;;9.07;4.43;;;20.50;1.00;;;;;;6175591;23;20040;-65
2021/06/17 02:49:46;;;;;;;8.18;4.18;;;20.40;1.00;;;;;;6176215;23;20021;-65
2021/06/17 02:52:34;;;;;;;5.32;3.80;;;20.40;1.00;;;;;;6178990;23;20101;-64
2021/06/17 02:55:24;;;;;;;6.22;4.00;;;20.40;1.00;;;;;;6175568;23;20025;-63
2021/06/17 02:58:35;;;;;;;6.95;3.88;;;20.40;1.00;;;;;;6174023;23;20151;-64
2021/06/17 03:01:30;;;;;;;5.28;3.70;;;20.40;1.00;;;;;;6177866;23;20031;-64
2021/06/17 03:04:23;;;;;;;4.05;3.53;;;20.40;1.00;;;;;;6177544;23;20269;-64
2021/06/17 03:07:17;;;;;;;5.50;3.85;;;20.30;1.00;;;;;;6176529;23;20035;-65
2021/06/17 03:10:08;;;;;;;6.70;4.10;;;20.30;1.00;;;;;;6178418;23;20497;-65
2021/06/17 03:13:03;;;;;;;6.97;4.68;;;20.20;1.00;;;;;;6179427;23;20048;-63
2021/06/17 03:15:52;;;;;;;6.03;4.13;;;20.20;1.00;;;;;;6175207;23;20043;-63
2021/06/17 03:18:42;;;;;;;6.93;4.35;;;20.20;1.00;;;;;;6175565;23;20549;-64
2021/06/17 03:21:34;;;;;;;9.32;4.50;;;20.20;1.00;;;;;;6177271;23;20028;-65
2021/06/17 03:24:26;;;;;;;5.88;4.32;;;20.20;1.00;;;;;;6176273;23;20458;-64
2021/06/17 03:27:16;;;;;;;10.20;4.15;;;20.20;1.00;;;;;;6177729;23;20439;-64
2021/06/17 03:30:07;;;;;;;8.43;4.45;;;20.20;1.00;;;;;;6165602;23;20525;-64
2021/06/17 03:32:58;;;;;;;6.38;4.65;;;20.20;1.00;;;;;;6179248;23;20124;-64
2021/06/17 03:35:49;;;;;;;8.93;4.72;;;20.20;1.00;;;;;;6177834;23;20115;-65
2021/06/17 03:38:40;;;;;;;5.35;4.40;;;20.50;1.00;;;;;;6173902;23;20147;-63
2021/06/17 03:41:30;;;;;;;8.07;4.75;;;20.50;1.00;;;;;;6175872;23;20142;-63
2021/06/17 03:44:19;;;;;;;7.90;5.03;;;21.30;1.00;;;;;;6177864;23;20025;-65
2021/06/17 03:47:11;;;;;;;7.45;5.18;;;22.00;1.00;;;;;;6174424;23;20198;-65
2021/06/17 03:50:00;;;;;;;8.23;5.18;;;22.80;1.00;;;;;;6175613;23;20021;-64
2021/06/17 03:52:51;;;;;;;8.38;5.15;;;23.10;1.00;;;;;;6177948;23;20021;-64
2021/06/17 03:55:42;;;;;;;9.10;5.03;;;23.20;1.00;;;;;;6179307;23;20024;-64
2021/06/17 03:58:31;;;;;;;12.43;5.00;;;24.00;1.00;;;;;;6174096;23;20025;-64
2021/06/17 04:01:20;;;;;;;6.72;4.95;;;23.60;1.00;;;;;;6175870;23;20701;-64
2021/06/17 04:04:10;;;;;;;8.27;4.93;;;23.60;1.00;;;;;;6177487;23;20017;-65
2021/06/17 04:07:22;;;;;;;7.70;4.88;;;24.10;1.00;;;;;;6176598;23;20036;-64
2021/06/17 04:10:11;;;;;;;6.60;4.75;;;25.10;1.00;;;;;;6175000;23;20095;-64
2021/06/17 04:13:01;;;;;;;7.82;4.75;;;25.20;1.00;;;;;;6179678;23;20021;-65
2021/06/17 04:15:50;;;;;;;6.28;4.53;;;24.80;1.00;;;;;;6178052;23;20457;-63
2021/06/17 04:18:42;;;;;;;6.15;4.78;;;24.60;1.00;;;;;;6173667;23;20420;-65
2021/06/17 04:21:35;;;;;;;10.50;4.50;;;24.40;1.00;;;;;;6174840;23;20123;-65
2021/06/17 04:24:25;;;;;;;10.13;4.70;;;24.70;1.00;;;;;;6177743;23;20025;-65
2021/06/17 04:27:15;;;;;;;7.15;4.70;;;24.90;1.00;;;;;;6175705;23;20099;-65
2021/06/17 04:30:05;;;;;;;11.40;4.55;;;25.00;1.00;;;;;;6173536;23;20381;-63
2021/06/17 04:32:54;;;;;;;13.48;4.45;;;25.80;1.00;;;;;;6178613;23;20028;-64
2021/06/17 04:35:44;;;;;;;8.90;4.50;;;25.70;1.00;;;;;;6176634;23;20052;-65
2021/06/17 04:38:34;;;;;;;7.70;4.45;;;26.10;1.00;;;;;;6173506;23;20175;-65
2021/06/17 04:41:23;;;;;;;7.30;4.50;;;26.80;1.00;;;;;;6174589;23;20052;-64
2021/06/17 04:44:12;;;;;;;8.93;4.57;;;28.40;1.00;;;;;;6177744;23;20053;-66
2021/06/17 04:47:01;;;;;;;8.85;5.10;;;28.80;1.00;;;;;;6176931;23;20491;-65
2021/06/17 04:49:51;;;;;;;8.00;5.05;;;28.30;1.00;;;;;;6174859;23;20052;-64
2021/06/17 04:52:58;;;;;;;7.18;5.00;;;28.20;1.00;;;;;;6177358;23;20017;-64
2021/06/17 04:55:51;;;;;;;6.05;4.78;;;27.90;1.00;;;;;;6177007;23;20031;-64
2021/06/17 04:58:42;;;;;;;9.55;5.00;;;27.70;1.00;;;;;;6171422;23;20175;-64
2021/06/17 05:01:30;;;;;;;5.25;4.63;;;27.80;1.00;;;;;;6174742;23;20029;-65
2021/06/17 05:04:19;;;;;;;7.70;5.22;;;27.80;1.00;;;;;;6177623;23;20021;-65
2021/06/17 05:07:28;;;;;;;11.75;5.30;;;28.00;1.00;;;;;;6176161;23;20478;-65
2021/06/17 05:13:27;;;;;;;6.85;4.70;;;27.80;1.00;;;;;;6179124;23;20057;-64
2021/06/17 05:16:15;;;;;;;9.07;4.30;;;28.00;1.00;;;;;;6179080;23;20100;-65
2021/06/17 05:19:04;;;;;;;12.40;5.00;;;27.30;1.00;;;;;;6176945;23;20027;-64
2021/06/17 05:21:52;;;;;;;6.70;4.47;;;28.00;1.00;;;;;;6177552;23;20240;-63
2021/06/17 05:24:41;;;;;;;8.98;5.03;;;28.00;1.00;;;;;;6178506;23;20100;-64
2021/06/17 05:27:29;;;;;;;9.40;4.68;;;28.30;1.00;;;;;;6176124;23;20035;-64
2021/06/17 05:30:20;;;;;;;6.88;4.28;;;28.50;1.00;;;;;;6176160;23;20029;-65
2021/06/17 05:33:08;;;;;;;8.27;4.13;;;27.70;1.00;;;;;;6178976;23;20021;-65
2021/06/17 05:35:58;;;;;;;8.60;4.53;;;27.80;1.00;;;;;;6178028;23;20283;-63
2021/06/17 05:38:48;;;;;;;8.05;4.20;;;27.70;1.00;;;;;;6173991;23;20517;-65
2021/06/17 05:41:36;;;;;;;9.95;4.65;;;27.20;1.00;;;;;;6176272;23;20399;-65
2021/06/17 05:44:24;;;;;;;6.60;4.53;;;27.50;1.00;;;;;;6178772;23;20437;-65
2021/06/17 05:47:14;;;;;;;6.22;4.40;;;26.80;1.00;;;;;;6177294;23;20091;-65
2021/06/17 05:50:03;;;;;;;8.98;4.28;;;27.50;1.00;;;;;;6174770;23;20540;-63
2021/06/17 05:52:52;;;;;;;9.30;4.63;;;27.20;1.00;;;;;;6178844;23;20096;-64
2021/06/17 05:55:40;;;;;;;7.15;4.10;;;27.20;1.00;;;;;;6177427;23;20172;-64
2021/06/17 05:58:29;;;;;;;10.20;4.68;;;28.00;1.00;;;;;;6173999;23;20053;-65
2021/06/17 06:01:18;;;;;;;10.07;4.00;;;27.40;1.00;;;;;;6176607;23;20028;-64
2021/06/17 06:04:08;;;;;;;8.15;4.18;;;27.00;1.00;;;;;;6178232;23;20025;-65
2021/06/17 06:06:57;;;;;;;8.45;4.03;;;26.50;1.00;;;;;;6177529;23;20451;-64
2021/06/17 06:09:45;;;;;;;5.90;3.78;;;26.30;1.00;;;;;;6175065;23;20497;-63
2021/06/17 06:12:33;;;;;;;7.85;3.50;;;25.90;1.00;;;;;;6178491;23;20457;-64
2021/06/17 06:15:23;;;;;;;5.82;3.85;;;25.60;1.00;;;;;;6178560;23;20021;-64
2021/06/17 06:18:14;;;;;;;7.00;3.50;;;25.50;1.00;;;;;;6174590;23;20048;-65
2021/06/17 06:21:04;;;;;;;8.40;3.90;;;25.50;1.00;;;;;;6175191;23;20415;-65
2021/06/17 06:23:53;;;;;;;6.78;3.42;;;25.50;1.00;;;;;;6178712;23;20455;-65
2021/06/17 06:26:41;;;;;;;7.07;4.30;;;26.00;1.00;;;;;;6174809;23;20025;-65
2021/06/17 06:29:30;;;;;;;8.48;3.72;;;26.20;1.00;;;;;;6175562;23;20115;-63
2021/06/17 06:32:18;;;;;;;12.35;4.05;;;26.10;1.00;;;;;;6177016;23;20112;-65
2021/06/17 06:35:09;;;;;;;8.52;3.88;;;26.20;1.00;;;;;;6175650;23;20485;-64
2021/06/17 06:37:59;;;;;;;6.90;3.97;;;26.40;1.00;;;;;;6174045;23;20469;-64
2021/06/17 06:40:48;;;;;;;5.32;4.03;;;27.20;1.00;;;;;;6177868;23;20522;-64
2021/06/17 06:43:36;;;;;;;9.90;4.00;;;26.70;1.00;;;;;;6178805;23;20060;-64
2021/06/17 06:46:25;;;;;;;10.73;3.83;;;26.40;1.00;;;;;;6176353;23;20454;-64
2021/06/17 06:49:13;;;;;;;6.60;4.15;;;26.40;1.00;;;;;;6174690;23;20371;-65
2021/06/17 06:52:01;;;;;;;5.95;3.70;;;26.80;1.00;;;;;;6177888;23;20029;-65
2021/06/17 06:54:51;;;;;;;8.07;4.03;;;26.70;1.00;;;;;;6175724;23;20079;-65
2021/06/17 06:57:40;;;;;;;7.03;3.65;;;26.70;1.00;;;;;;6173165;23;20119;-65
2021/06/17 07:00:29;;;;;;;7.55;3.90;;;26.80;1.00;;;;;;6177265;23;20028;-64
2021/06/17 07:03:17;;;;;;;8.05;3.75;;;27.00;1.00;;;;;;6177480;23;20125;-65
2021/06/17 07:06:06;;;;;;;7.50;3.60;;;26.90;1.00;;;;;;6175716;23;20167;-65
2021/06/17 07:08:54;;;;;;;9.93;3.70;;;27.10;1.00;;;;;;6173441;23;20358;-65
2021/06/17 07:11:45;;;;;;;4.72;3.75;;;27.40;1.00;;;;;;6176737;23;20021;-64
2021/06/17 07:14:34;;;;;;;6.90;3.65;;;27.30;1.00;;;;;;6175304;23;20017;-64
2021/06/17 07:17:22;;;;;;;7.07;3.72;;;26.90;1.00;;;;;;6174954;23;20016;-64
2021/06/17 07:20:15;;;;;;;5.28;3.88;;;27.20;1.00;;;;;;6176920;23;20509;-64
2021/06/17 07:23:05;;;;;;;16.23;5.45;;;27.00;1.00;;;;;;6177639;23;20100;-64
2021/06/17 07:25:53;;;;;;;11.45;5.50;;;27.30;1.00;;;;;;6172824;23;20057;-63
2021/06/17 07:28:43;;;;;;;5.72;3.60;;;27.50;1.00;;;;;;6172902;23;20556;-64
2021/06/17 07:31:31;;;;;;;7.95;3.80;;;27.00;1.00;;;;;;6177998;23;20035;-64
2021/06/17 07:34:21;;;;;;;7.88;3.80;;;27.30;1.00;;;;;;6175801;23;20451;-64
2021/06/17 07:37:10;;;;;;;15.15;4.30;;;27.30;1.00;;;;;;6176131;23;20025;-65
2021/06/17 07:39:58;;;;;;;5.57;3.78;;;27.30;1.00;;;;;;6175423;23;20375;-65
2021/06/17 07:42:48;;;;;;;10.27;4.88;;;27.90;1.00;;;;;;6176971;23;20247;-65
2021/06/17 07:45:39;;;;;;;7.85;3.65;;;28.00;1.00;;;;;;6176564;23;20358;-64
2021/06/17 07:48:27;;;;;;;5.80;3.28;;;28.00;1.00;;;;;;6173988;23;20091;-65
2021/06/17 07:51:16;;;;;;;5.07;3.30;;;28.40;1.00;;;;;;6176744;23;20633;-65
2021/06/17 07:54:05;;;;;;;5.70;3.58;;;28.70;1.00;;;;;;6176124;23;20021;-65
2021/06/17 07:56:53;;;;;;;6.15;3.65;;;28.70;1.00;;;;;;6174741;23;20112;-64
2021/06/17 07:59:41;;;;;;;7.53;3.72;;;28.70;1.00;;;;;;6174389;23;20029;-65
2021/06/17 08:02:31;;;;;;;8.18;3.60;;;28.70;1.00;;;;;;6177192;23;20029;-65
2021/06/17 08:05:20;;;;;;;11.90;3.60;;;28.80;1.00;;;;;;6174801;23;20028;-65
2021/06/17 08:08:08;;;;;;;5.80;3.58;;;28.50;1.00;;;;;;6173063;23;20159;-65
2021/06/17 08:10:57;;;;;;;6.60;3.72;;;28.80;1.00;;;;;;6176778;23;20021;-64
2021/06/17 08:13:45;;;;;;;4.38;3.42;;;28.80;1.00;;;;;;6176851;23;20544;-65
2021/06/17 08:16:34;;;;;;;4.88;3.55;;;28.80;1.00;;;;;;6176071;23;20036;-65
2021/06/17 08:19:28;;;;;;;4.97;3.42;;;28.80;1.00;;;;;;6173202;23;20110;-65
2021/06/17 08:22:16;;;;;;;;;;;29.00;1.00;;;;;;6176837;23;20064;-65
2021/06/17 08:25:07;;;;;;;8.20;2.97;;;29.20;1.00;;;;;;6175561;23;19991;-65
2021/06/17 08:28:01;;;;;;;5.53;3.40;;;29.00;1.00;;;;;;6173594;23;20043;-65
2021/06/17 08:30:50;;;;;;;4.85;3.58;;;29.20;1.00;;;;;;6177289;23;20092;-65
2021/06/17 08:33:38;;;;;;;9.38;3.08;;;29.40;1.00;;;;;;6177006;23;20047;-66
2021/06/17 08:36:28;;;;;;;6.07;3.25;;;29.60;1.00;;;;;;6175818;23;20529;-65
2021/06/17 08:39:16;;;;;;;5.72;3.08;;;29.50;1.00;;;;;;6173619;23;20021;-65
2021/06/17 08:42:06;;;;;;;8.60;3.88;;;29.60;1.00;;;;;;6176566;23;20056;-66
2021/06/17 08:44:55;;;;;;;8.68;4.38;;;30.00;1.00;;;;;;6173817;23;20053;-65
2021/06/17 08:47:45;;;;;;;8.18;3.20;;;30.00;1.00;;;;;;6168863;23;20130;-65
2021/06/17 08:50:34;;;;;;;9.15;3.38;;;30.20;1.00;;;;;;6178006;23;20029;-65
2021/06/17 08:53:25;;;;;;;8.07;3.30;;;29.60;1.00;;;;;;6178584;23;20360;-65
2021/06/17 08:56:13;;;;;;;7.68;3.70;;;29.70;1.00;;;;;;6177115;23;20021;-65
2021/06/17 08:59:02;;;;;;;5.47;2.80;;;29.90;1.00;;;;;;6174672;23;20339;-65
2021/06/17 09:01:57;;;;;;;10.10;3.08;;;30.10;1.00;;;;;;6178138;23;20400;-65
2021/06/17 09:04:45;;;;;;;5.63;2.80;;;30.20;1.00;;;;;;6177146;23;20406;-65
2021/06/17 09:07:34;;;;;;;5.32;3.25;;;30.50;1.00;;;;;;6174544;23;20516;-65
2021/06/17 09:10:24;;;;;;;6.25;3.42;;;30.70;1.00;;;;;;6176986;23;20685;-66
2021/06/17 09:13:13;;;;;;;8.30;3.38;;;30.40;1.00;;;;;;6178102;23;20021;-65
2021/06/17 09:16:03;;;;;;;5.40;3.22;;;30.20;1.00;;;;;;6177793;23;20028;-65
2021/06/17 09:18:51;;;;;;;12.85;4.13;;;30.30;1.00;;;;;;6173268;23;20025;-65
2021/06/17 09:21:40;;;;;;;7.03;3.58;;;30.20;1.00;;;;;;6178680;23;20029;-66
2021/06/17 09:24:30;;;;;;;8.20;3.30;;;30.20;1.00;;;;;;6176207;23;20115;-65
2021/06/17 09:27:31;;;;;;;7.50;3.30;;;30.60;1.00;;;;;;6176613;23;20496;-65
2021/06/17 09:30:22;;;;;;;7.50;3.45;;;29.90;1.00;;;;;;6178723;23;20099;-65
2021/06/17 09:33:13;;;;;;;6.50;3.20;;;29.90;1.00;;;;;;6177970;23;20024;-65
2021/06/17 09:36:01;;;;;;;4.78;3.10;;;30.20;1.00;;;;;;6178351;23;20083;-64
2021/06/17 09:38:51;;;;;;;5.63;3.15;;;30.70;1.00;;;;;;6173676;23;20306;-65
2021/06/17 09:41:42;;;;;;;9.35;3.33;;;30.50;1.00;;;;;;6179809;23;20035;-65
2021/06/17 09:44:37;;;;;;;5.18;2.83;;;30.40;1.00;;;;;;6176335;23;20437;-65
2021/06/17 09:47:26;;;;;;;6.97;3.30;;;30.70;1.00;;;;;;6174930;23;20139;-64
2021/06/17 09:50:22;;;;;;;7.85;3.30;;;31.10;1.00;;;;;;6178371;23;20025;-65
2021/06/17 09:53:24;;;;;;;8.30;3.88;;;30.60;1.00;;;;;;6178277;23;20024;-65
2021/06/17 09:56:17;;;;;;;7.82;3.80;;;30.80;1.00;;;;;;6176840;23;20039;-65
2021/06/17 09:59:07;;;;;;;5.55;3.45;;;30.60;1.00;;;;;;6174740;23;20496;-65
2021/06/17 10:01:57;;;;;;;7.10;4.00;;;30.60;1.00;;;;;;6177503;23;20500;-65
2021/06/17 10:04:45;;;;;;;5.80;3.85;;;30.10;1.00;;;;;;6175731;23;20147;-65
2021/06/17 10:07:35;;;;;;;7.03;4.10;;;30.80;1.00;;;;;;6177429;23;20469;-65
2021/06/17 10:10:26;;;;;;;7.15;3.95;;;31.20;1.00;;;;;;6176778;23;20025;-65
2021/06/17 10:13:16;;;;;;;6.03;3.83;;;31.00;1.00;;;;;;6177635;23;20023;-65
2021/06/17 10:16:06;;;;;;;6.53;4.18;;;30.60;1.00;;;;;;6177181;23;20024;-64
2021/06/17 10:18:55;;;;;;;6.13;3.85;;;30.60;1.00;;;;;;6174071;23;20346;-65
2021/06/17 10:21:44;;;;;;;5.15;4.00;;;31.00;1.00;;;;;;6178168;23;20029;-65
2021/06/17 10:24:39;;;;;;;7.60;4.20;;;31.00;1.00;;;;;;6175747;23;20029;-66
2021/06/17 10:27:33;;;;;;;4.50;3.67;;;30.70;1.00;;;;;;6175167;23;20869;-66
2021/06/17 10:30:39;;;;;;;4.35;3.95;;;31.00;1.00;;;;;;6177063;23;20032;-65
2021/06/17 10:33:28;;;;;;;6.35;3.92;;;30.50;1.00;;;;;;6177934;23;20025;-64
2021/06/17 10:36:37;;;;;;;5.50;3.72;;;30.70;1.00;;;;;;6177255;23;20099;-65
2021/06/17 10:39:37;;;;;;;6.68;4.10;;;31.20;1.00;;;;;;6176089;23;20297;-65
2021/06/17 10:42:32;;;;;;;6.35;4.38;;;30.90;1.00;;;;;;6174868;23;20025;-65
2021/06/17 10:45:35;;;;;;;4.22;3.83;;;31.20;1.00;;;;;;6176390;23;20024;-64
2021/06/17 10:48:43;;;;;;;6.85;3.92;;;30.90;1.00;;;;;;6176117;23;20021;-65
2021/06/17 10:51:33;;;;;;;6.32;4.30;;;30.80;1.00;;;;;;6177991;23;20618;-64
2021/06/17 10:54:51;;;;;;;4.85;4.20;;;31.10;1.00;;;;;;6175327;23;20033;-64
2021/06/17 10:57:54;;;;;;;6.45;4.47;;;31.70;1.00;;;;;;6175350;23;21197;-67
2021/06/17 11:00:47;;;;;;;5.53;4.00;;;31.40;1.00;;;;;;6175577;23;20346;-65
2021/06/17 11:03:41;;;;;;;7.65;3.97;;;31.60;1.00;;;;;;6177499;23;20021;-64
2021/06/17 11:07:07;;;;;;;8.55;4.28;;;31.30;1.00;;;;;;6177609;23;20525;-65
2021/06/17 11:10:03;;;;;;;5.68;4.05;;;31.20;1.00;;;;;;6174990;23;20078;-65
2021/06/17 11:12:58;;;;;;;6.88;4.50;;;31.60;1.00;;;;;;6177135;23;20204;-66
2021/06/17 11:15:48;;;;;;;7.50;4.00;;;31.70;1.00;;;;;;6175439;23;20083;-64
2021/06/17 11:22:02;;;;;;;4.72;4.22;;;31.60;1.00;;;;;;6174823;23;20096;-64
2021/06/17 11:24:53;;;;;;;5.72;4.43;;;31.60;1.00;;;;;;6173849;23;20143;-65
2021/06/17 11:28:00;;;;;;;4.93;4.43;;;31.60;1.00;;;;;;6175137;23;20032;-65
2021/06/17 11:30:55;;;;;;;9.40;3.97;;;31.40;1.00;;;;;;6175945;23;20394;-64
2021/06/17 11:33:48;;;;;;;5.45;4.20;;;31.80;1.00;;;;;;6175536;23;20214;-65
2021/06/17 11:36:48;;;;;;;4.57;4.18;;;31.60;1.00;;;;;;6177327;23;20103;-67
2021/06/17 11:39:37;;;;;;;7.43;4.20;;;31.60;1.00;;;;;;6171520;23;20035;-66
2021/06/17 11:42:25;;;;;;;8.77;5.22;;;31.60;1.00;;;;;;6176426;23;20102;-66
2021/06/17 11:45:15;;;;;;;8.55;4.15;;;32.10;1.00;;;;;;6174813;23;20152;-66
2021/06/17 11:48:08;;;;;;;4.90;4.30;;;31.70;1.00;;;;;;6175208;23;20096;-65
2021/06/17 11:50:56;;;;;;;8.23;4.05;;;31.80;1.00;;;;;;6175051;23;20441;-66
2021/06/17 11:53:49;;;;;;;7.10;4.93;;;31.90;1.00;;;;;;6172309;23;20458;-64
2021/06/17 11:56:38;;;;;;;5.93;4.35;;;32.20;1.00;;;;;;6175723;23;20379;-63
2021/06/17 11:59:30;;;;;;;7.35;4.50;;;31.80;1.00;;;;;;6174371;23;20514;-64
2021/06/17 12:02:24;;;;;;;6.88;4.57;;;31.60;1.00;;;;;;6176367;23;20056;-67
2021/06/17 12:05:22;;;;;;;7.57;4.53;;;32.20;1.00;;;;;;6174903;23;20405;-69
2021/06/17 12:08:11;;;;;;;8.95;4.55;;;31.90;1.00;;;;;;6175067;23;20362;-64
2021/06/17 12:11:01;;;;;;;5.05;4.55;;;32.10;1.00;;;;;;6175117;23;20521;-65
2021/06/17 12:13:50;;;;;;;9.20;4.82;;;32.40;1.00;;;;;;6174658;23;20476;-65
2021/06/17 12:16:38;;;;;;;8.60;4.68;;;32.40;1.00;;;;;;6176132;23;20084;-64
2021/06/17 12:19:28;;;;;;;7.10;4.55;;;32.00;1.00;;;;;;6172648;23;20025;-63
2021/06/17 12:22:20;;;;;;;5.90;4.30;;;32.10;1.00;;;;;;6175760;23;20427;-63
2021/06/17 12:25:10;;;;;;;4.70;4.30;;;32.20;1.00;;;;;;6174183;23;20124;-64
2021/06/17 12:28:00;;;;;;;4.45;3.90;;;32.10;1.00;;;;;;6171826;23;20024;-64
2021/06/17 12:30:51;;;;;;;6.22;3.90;;;32.40;1.00;;;;;;6175585;23;20025;-63
2021/06/17 12:33:41;;;;;;;6.57;4.40;;;32.30;1.00;;;;;;6174851;23;20029;-63
2021/06/17 12:37:07;;;;;;;12.97;4.10;;;32.20;1.00;;;;;;6174643;23;20024;-64
2021/06/17 12:40:02;;;;;;;4.45;3.90;;;31.90;1.00;;;;;;6174471;23;20051;-63
2021/06/17 12:43:06;;;;;;;5.50;3.90;;;32.30;1.00;;;;;;6178166;23;20113;-63
2021/06/17 12:46:03;;;;;;;7.70;3.58;;;32.10;1.00;;;;;;6175564;23;20049;-64
2021/06/17 12:49:15;;;;;;;4.28;3.13;;;32.20;1.00;;;;;;6151991;23;20336;-64
2021/06/17 12:52:10;;;;;;;4.30;3.63;;;32.40;1.00;;;;;;6175243;23;20028;-64
2021/06/17 12:55:01;;;;;;;4.70;3.70;;;32.60;1.00;;;;;;6174852;23;20021;-64
2021/06/17 12:58:13;;;;;;;8.60;3.60;;;32.40;1.00;;;;;;6174266;23;20017;-64
2021/06/17 13:01:03;;;;;;;9.82;3.70;;;32.60;1.00;;;;;;6175240;23;20029;-64
2021/06/17 13:03:52;;;;;;;8.60;3.75;;;32.70;1.00;;;;;;6173571;23;20036;-64
2021/06/17 13:06:41;;;;;;;6.03;3.58;;;32.80;1.00;;;;;;6175121;23;20021;-64
2021/06/17 13:09:31;;;;;;;5.50;3.88;;;32.40;1.00;;;;;;6172637;23;20024;-64
2021/06/17 13:12:27;;;;;;;4.93;3.58;;;32.40;1.00;;;;;;6176036;23;20075;-64
2021/06/17 13:15:18;;;;;;;14.00;3.97;;;32.40;1.00;;;;;;6173628;23;20031;-64
2021/06/17 13:18:08;;;;;;;5.60;3.53;;;32.70;1.00;;;;;;6174060;23;20032;-62
2021/06/17 13:20:59;;;;;;;3.78;3.03;;;32.70;1.00;;;;;;6175159;23;20096;-64
2021/06/17 13:23:49;;;;;;;4.20;3.42;;;32.90;1.00;;;;;;6172373;23;20080;-63
2021/06/17 13:26:38;;;;;;;6.45;3.42;;;33.00;1.00;;;;;;6176897;23;20024;-64
2021/06/17 13:29:27;;;;;;;5.47;3.17;;;32.80;1.00;;;;;;6175533;23;20035;-63
2021/06/17 13:32:15;;;;;;;6.13;3.45;;;33.10;1.00;;;;;;6178202;23;20539;-64
2021/06/17 13:35:06;;;;;;;5.53;3.20;;;32.90;1.00;;;;;;6172161;23;20552;-62
2021/06/17 13:37:55;;;;;;;3.95;2.92;;;32.90;1.00;;;;;;6175548;23;20077;-64
2021/06/17 13:41:00;;;;;;;5.40;3.60;;;33.00;1.00;;;;;;6174021;23;20029;-64
2021/06/17 13:43:50;;;;;;;6.68;2.78;;;33.00;1.00;;;;;;6175770;23;20721;-63
2021/06/17 13:46:38;;;;;;;9.73;3.58;;;33.00;1.00;;;;;;6177847;23;20032;-64
2021/06/17 13:49:27;;;;;;;7.88;3.50;;;32.80;1.00;;;;;;6173806;23;20032;-64
2021/06/17 13:52:17;;;;;;;3.78;3.20;;;32.90;1.00;;;;;;6176409;23;20386;-63
2021/06/17 13:55:09;;;;;;;5.55;3.17;;;32.90;1.00;;;;;;6175609;23;20025;-64
2021/06/17 13:58:00;;;;;;;7.38;3.47;;;33.20;1.00;;;;;;6173514;23;20021;-64
2021/06/17 14:00:49;;;;;;;6.80;3.72;;;33.20;1.00;;;;;;6176446;23;20055;-63
2021/06/17 14:03:38;;;;;;;13.18;4.05;;;33.10;1.00;;;;;;6175091;23;20115;-62
2021/06/17 14:06:27;;;;;;;6.50;3.50;;;33.20;1.00;;;;;;6175362;23;20029;-63
2021/06/17 14:09:16;;;;;;;4.78;3.10;;;33.30;1.00;;;;;;6175168;23;20095;-63
2021/06/17 14:12:05;;;;;;;5.82;3.40;;;33.00;1.00;;;;;;6178687;23;20029;-63
2021/06/17 14:14:53;;;;;;;5.38;3.20;;;32.60;1.00;;;;;;6174708;23;20048;-64
2021/06/17 14:17:44;;;;;;;7.57;3.55;;;32.70;1.00;;;;;;6173138;23;20024;-64
2021/06/17 14:20:33;;;;;;;3.42;3.13;;;32.70;1.00;;;;;;6152743;23;20122;-63
2021/06/17 14:23:21;;;;;;;6.30;3.17;;;32.80;1.00;;;;;;6177302;23;20048;-62
2021/06/17 14:26:10;;;;;;;4.57;3.22;;;33.30;1.00;;;;;;6176262;23;20021;-63
2021/06/17 14:28:58;;;;;;;3.70;2.67;;;33.50;1.00;;;;;;6173354;23;20021;-63
2021/06/17 14:31:46;;;;;;;4.97;3.45;;;33.00;1.00;;;;;;6177545;23;20021;-63
2021/06/17 14:34:36;;;;;;;3.65;3.13;;;33.20;1.00;;;;;;6176209;23;20033;-64
2021/06/17 14:37:31;;;;;;;6.13;3.28;;;33.20;1.00;;;;;;6173995;23;20021;-62
2021/06/17 14:40:19;;;;;;;6.70;3.13;;;33.10;1.00;;;;;;6178005;23;20046;-63
2021/06/17 14:43:08;;;;;;;6.30;3.03;;;32.90;1.00;;;;;;6176147;23;20023;-64
2021/06/17 14:45:57;;;;;;;4.15;3.17;;;33.20;1.00;;;;;;6177404;23;20024;-64
2021/06/17 14:48:48;;;;;;;4.00;2.92;;;33.40;1.00;;;;;;6174740;23;20032;-66
2021/06/17 14:51:38;;;;;;;5.80;3.22;;;33.60;1.00;;;;;;6177823;23;20536;-63
2021/06/17 14:54:27;;;;;;;4.43;3.03;;;33.60;1.00;;;;;;6176391;23;20401;-64
2021/06/17 14:57:15;;;;;;;3.50;3.05;;;33.50;1.00;;;;;;6175493;23;20020;-65
2021/06/17 15:00:05;;;;;;;5.55;2.78;;;33.30;1.00;;;;;;6172107;23;20072;-63
2021/06/17 15:02:53;;;;;;;7.15;3.00;;;33.60;1.00;;;;;;6176310;23;20105;-64
2021/06/17 15:05:42;;;;;;;5.93;3.30;;;33.10;1.00;;;;;;6175248;23;20065;-63
2021/06/17 15:08:32;;;;;;;4.35;3.13;;;33.30;1.00;;;;;;6174182;23;20099;-63
2021/06/17 15:11:20;;;;;;;4.65;3.03;;;33.00;1.00;;;;;;6176832;23;20020;-64
2021/06/17 15:14:08;;;;;;;5.03;3.45;;;33.50;1.00;;;;;;6175668;23;20025;-62